createdAt,value
2022-09-13T00:00:03.314Z,18.21
2022-09-13T00:02:32.694Z,18.16
2022-09-13T00:05:00.342Z,18.08
2022-09-13T00:07:27.885Z,18.09
2022-09-13T00:09:55.480Z,18.30
2022-09-13T00:12:23.090Z,18.33
2022-09-13T00:14:50.698Z,18.31
2022-09-13T00:17:18.359Z,18.26
2022-09-13T00:19:48.050Z,18.16
2022-09-13T00:22:15.590Z,18.10
2022-09-13T00:24:43.227Z,18.12
2022-09-13T00:27:12.334Z,18.09
2022-09-13T00:29:40.008Z,17.96
2022-09-13T00:32:07.653Z,17.85
2022-09-13T00:34:35.261Z,17.77
2022-09-13T00:37:04.445Z,17.64
2022-09-13T00:39:33.163Z,17.59
2022-09-13T00:42:00.741Z,17.59
2022-09-13T00:44:53.576Z,17.50
2022-09-13T00:47:24.274Z,17.34
2022-09-13T00:49:54.530Z,17.28
2022-09-13T00:52:28.444Z,17.26
2022-09-13T00:55:00.388Z,17.27
2022-09-13T00:57:30.046Z,17.21
2022-09-13T01:00:07.264Z,17.17
2022-09-13T01:02:35.046Z,17.09
2022-09-13T01:05:03.638Z,17.14
2022-09-13T01:07:32.703Z,17.18
2022-09-13T01:10:00.333Z,17.37
2022-09-13T01:12:38.476Z,17.41
2022-09-13T01:15:07.686Z,17.55
2022-09-13T01:17:36.982Z,17.51
2022-09-13T01:20:05.882Z,17.48
2022-09-13T01:22:58.722Z,17.38
2022-09-13T01:26:11.586Z,17.36
2022-09-13T01:28:59.684Z,17.13
2022-09-13T01:31:36.363Z,16.83
2022-09-13T01:34:17.645Z,16.88
2022-09-13T01:36:55.698Z,16.96
2022-09-13T01:39:37.438Z,17.21
2022-09-13T01:42:16.404Z,17.20
2022-09-13T01:45:00.976Z,17.11
2022-09-13T01:47:34.758Z,17.04
2022-09-13T01:50:13.864Z,17.07
2022-09-13T01:52:53.986Z,17.12
2022-09-13T01:55:32.023Z,17.06
2022-09-13T01:58:09.190Z,17.19
2022-09-13T02:00:42.818Z,17.25
2022-09-13T02:03:18.322Z,17.16
2022-09-13T02:05:51.102Z,17.08
2022-09-13T02:08:24.291Z,17.04
2022-09-13T02:10:59.718Z,17.07
2022-09-13T02:13:33.647Z,17.11
2022-09-13T02:16:08.405Z,17.04
2022-09-13T02:18:41.459Z,16.94
2022-09-13T02:21:13.698Z,16.85
2022-09-13T02:23:46.024Z,16.88
2022-09-13T02:26:16.281Z,16.89
2022-09-13T02:28:49.991Z,16.97
2022-09-13T02:31:24.683Z,16.99
2022-09-13T02:33:57.934Z,16.94
2022-09-13T02:36:30.522Z,16.80
2022-09-13T02:39:01.312Z,16.73
2022-09-13T02:41:36.193Z,16.72
2022-09-13T02:44:10.966Z,16.78
2022-09-13T02:46:57.114Z,16.68
2022-09-13T02:49:31.809Z,16.66
2022-09-13T02:52:11.015Z,16.66
2022-09-13T02:54:43.717Z,16.64
2022-09-13T02:57:16.681Z,16.71
2022-09-13T02:59:44.326Z,16.84
2022-09-13T03:02:15.295Z,16.85
2022-09-13T03:04:44.294Z,16.77
2022-09-13T03:07:12.896Z,16.85
2022-09-13T03:09:47.171Z,16.66
2022-09-13T03:12:33.102Z,16.43
2022-09-13T03:15:12.813Z,16.36
2022-09-13T03:17:52.398Z,16.19
2022-09-13T03:20:31.416Z,16.12
2022-09-13T03:23:18.377Z,16.07
2022-09-13T03:26:07.779Z,16.09
2022-09-13T03:28:43.376Z,16.10
2022-09-13T03:31:20.336Z,16.24
2022-09-13T03:33:57.276Z,16.22
2022-09-13T03:36:32.436Z,16.23
2022-09-13T03:39:14.385Z,16.24
2022-09-13T03:41:48.060Z,16.15
2022-09-13T03:44:20.788Z,16.17
2022-09-13T03:46:51.090Z,16.20
2022-09-13T03:49:22.932Z,16.21
2022-09-13T03:51:53.782Z,16.31
2022-09-13T03:54:27.153Z,16.60
2022-09-13T03:57:09.671Z,16.78
2022-09-13T03:59:38.808Z,16.86
2022-09-13T04:02:11.114Z,16.85
2022-09-13T04:04:39.597Z,16.88
2022-09-13T04:07:09.761Z,16.89
2022-09-13T04:09:37.751Z,16.81
2022-09-13T04:12:05.875Z,16.73
2022-09-13T04:14:33.515Z,16.61
2022-09-13T04:17:01.069Z,16.55
2022-09-13T04:19:28.642Z,16.53
2022-09-13T04:21:56.981Z,16.48
2022-09-13T04:24:29.122Z,16.45
2022-09-13T04:26:57.272Z,16.45
2022-09-13T04:29:26.599Z,16.44
2022-09-13T04:31:55.571Z,16.41
2022-09-13T04:34:25.416Z,16.44
2022-09-13T04:36:54.592Z,16.42
2022-09-13T04:39:23.666Z,16.45
2022-09-13T04:41:54.818Z,16.43
2022-09-13T04:44:24.304Z,16.46
2022-09-13T04:46:52.475Z,16.46
2022-09-13T04:49:21.890Z,16.47
2022-09-13T04:51:49.706Z,16.48
2022-09-13T04:54:17.837Z,16.42
2022-09-13T04:56:45.782Z,16.35
2022-09-13T04:59:14.829Z,16.30
2022-09-13T05:01:43.182Z,16.31
2022-09-13T05:04:11.531Z,16.35
2022-09-13T05:06:39.280Z,16.40
2022-09-13T05:09:07.612Z,16.37
2022-09-13T05:11:35.436Z,16.37
2022-09-13T05:14:03.002Z,16.42
2022-09-13T05:16:33.591Z,16.44
2022-09-13T05:19:01.935Z,16.39
2022-09-13T05:21:30.890Z,16.39
2022-09-13T05:23:59.015Z,16.46
2022-09-13T05:26:29.274Z,16.41
2022-09-13T05:28:56.904Z,16.46
2022-09-13T05:31:28.157Z,16.41
2022-09-13T05:33:59.801Z,16.42
2022-09-13T05:36:28.182Z,16.43
2022-09-13T05:39:12.561Z,16.43
2022-09-13T05:41:44.921Z,16.43
2022-09-13T05:44:13.900Z,16.50
2022-09-13T05:46:42.171Z,16.46
2022-09-13T05:49:13.984Z,16.51
2022-09-13T05:51:41.730Z,16.51
2022-09-13T05:54:12.163Z,16.54
2022-09-13T05:56:40.030Z,16.53
2022-09-13T05:59:08.859Z,16.47
2022-09-13T06:01:36.734Z,16.39
2022-09-13T06:04:04.715Z,16.34
2022-09-13T06:06:33.741Z,16.37
2022-09-13T06:09:01.431Z,16.45
2022-09-13T06:11:29.054Z,16.43
2022-09-13T06:13:56.635Z,16.35
2022-09-13T06:16:24.365Z,16.33
2022-09-13T06:18:52.012Z,16.29
2022-09-13T06:21:25.739Z,16.31
2022-09-13T06:23:57.959Z,16.37
2022-09-13T06:26:27.783Z,16.46
2022-09-13T06:28:57.531Z,16.54
2022-09-13T06:31:27.486Z,16.63
2022-09-13T06:34:00.208Z,16.74
2022-09-13T06:36:28.315Z,16.80
2022-09-13T06:39:00.408Z,16.88
2022-09-13T06:41:28.300Z,16.91
2022-09-13T06:43:58.490Z,16.93
2022-09-13T06:46:27.593Z,16.97
2022-09-13T06:48:55.358Z,16.97
2022-09-13T06:51:25.333Z,17.07
2022-09-13T06:53:56.550Z,17.16
2022-09-13T06:56:26.981Z,17.20
2022-09-13T06:58:58.066Z,17.29
2022-09-13T07:01:28.134Z,17.31
2022-09-13T07:03:59.114Z,17.41
2022-09-13T07:06:28.635Z,17.45
2022-09-13T07:08:57.948Z,17.56
2022-09-13T07:11:30.315Z,17.57
2022-09-13T07:13:59.948Z,17.57
2022-09-13T07:16:29.760Z,17.75
2022-09-13T07:18:59.657Z,17.77
2022-09-13T07:21:28.435Z,17.72
2022-09-13T07:23:57.274Z,17.93
2022-09-13T07:26:25.250Z,18.01
2022-09-13T07:28:56.638Z,18.12
2022-09-13T07:31:26.131Z,18.07
2022-09-13T07:33:56.269Z,18.10
2022-09-13T07:36:24.269Z,18.26
2022-09-13T07:38:52.165Z,18.21
2022-09-13T07:41:22.780Z,18.28
2022-09-13T07:43:51.734Z,18.11
2022-09-13T07:46:22.646Z,18.23
2022-09-13T07:48:51.095Z,18.55
2022-09-13T07:51:20.728Z,18.59
2022-09-13T07:53:53.701Z,18.67
2022-09-13T07:56:26.873Z,18.66
2022-09-13T07:58:55.066Z,18.97
2022-09-13T08:01:25.941Z,18.79
2022-09-13T08:03:55.280Z,18.69
2022-09-13T08:06:23.412Z,18.67
2022-09-13T08:08:51.390Z,18.74
2022-09-13T08:11:20.702Z,18.64
2022-09-13T08:13:49.674Z,18.97
2022-09-13T08:16:19.407Z,19.17
2022-09-13T08:18:50.202Z,19.50
2022-09-13T08:21:18.079Z,19.49
2022-09-13T08:23:46.349Z,19.59
2022-09-13T08:26:14.342Z,19.39
2022-09-13T08:28:43.095Z,19.59
2022-09-13T08:31:13.833Z,19.49
2022-09-13T08:33:46.775Z,19.83
2022-09-13T08:36:17.168Z,19.81
2022-09-13T08:38:47.399Z,19.98
2022-09-13T08:41:52.384Z,19.94
2022-09-13T08:44:26.955Z,19.90
2022-09-13T08:47:00.430Z,19.71
2022-09-13T08:49:32.431Z,19.57
2022-09-13T08:52:13.161Z,19.98
2022-09-13T08:54:40.750Z,20.24
2022-09-13T08:57:17.215Z,20.25
2022-09-13T08:59:54.485Z,20.23
2022-09-13T09:02:42.434Z,20.30
2022-09-13T09:05:17.651Z,20.43
2022-09-13T09:07:52.125Z,20.39
2022-09-13T09:10:23.005Z,20.18
2022-09-13T09:12:53.485Z,20.31
2022-09-13T09:15:24.830Z,20.27
2022-09-13T09:17:59.987Z,20.53
2022-09-13T09:20:33.034Z,20.70
2022-09-13T09:23:05.811Z,20.83
2022-09-13T09:25:35.646Z,20.68
2022-09-13T09:28:12.955Z,20.68
2022-09-13T09:30:47.103Z,20.81
2022-09-13T09:33:42.163Z,20.51
2022-09-13T09:36:20.094Z,20.72
2022-09-13T09:38:49.070Z,20.59
2022-09-13T09:41:27.022Z,20.56
2022-09-13T09:44:01.129Z,20.76
2022-09-13T09:46:33.364Z,20.59
2022-09-13T09:49:27.581Z,20.57
2022-09-13T09:51:57.116Z,20.55
2022-09-13T09:54:29.081Z,20.42
2022-09-13T09:56:57.006Z,20.46
2022-09-13T09:59:32.499Z,20.76
2022-09-13T10:02:01.922Z,21.17
2022-09-13T10:04:30.236Z,21.35
2022-09-13T10:07:26.279Z,21.45
2022-09-13T10:10:00.335Z,21.40
2022-09-13T10:12:39.635Z,21.18
2022-09-13T10:15:17.379Z,21.06
2022-09-13T10:18:02.385Z,21.28
2022-09-13T10:20:31.358Z,21.41
2022-09-13T10:23:21.992Z,21.74
2022-09-13T10:26:05.808Z,21.81
2022-09-13T10:28:36.201Z,21.72
2022-09-13T10:31:07.533Z,21.87
2022-09-13T10:33:37.950Z,21.72
2022-09-13T10:36:08.796Z,21.94
2022-09-13T10:38:41.869Z,22.01
2022-09-13T10:41:27.777Z,21.96
2022-09-13T10:43:58.835Z,21.90
2022-09-13T10:46:28.987Z,22.08
2022-09-13T10:48:57.150Z,22.08
2022-09-13T10:51:35.878Z,21.77
2022-09-13T10:54:21.477Z,21.63
2022-09-13T10:56:51.802Z,22.13
2022-09-13T10:59:24.634Z,22.42
2022-09-13T11:02:07.006Z,22.52
2022-09-13T11:04:53.414Z,22.37
2022-09-13T11:07:40.156Z,22.20
2022-09-13T11:10:19.472Z,22.63
2022-09-13T11:12:56.167Z,22.63
2022-09-13T11:15:38.782Z,22.59
2022-09-13T11:18:38.051Z,22.61
2022-09-13T11:21:18.447Z,22.50
2022-09-13T11:24:14.263Z,22.67
2022-09-13T11:26:58.701Z,22.55
2022-09-13T11:29:57.512Z,22.73
2022-09-13T11:32:40.191Z,23.03
2022-09-13T11:35:29.935Z,22.90
2022-09-13T11:38:06.495Z,23.21
2022-09-13T11:40:44.532Z,23.12
2022-09-13T11:43:32.110Z,22.97
2022-09-13T11:46:09.380Z,23.14
2022-09-13T11:48:53.148Z,23.28
2022-09-13T11:51:33.835Z,23.27
2022-09-13T11:54:18.402Z,23.37
2022-09-13T11:56:51.498Z,23.43
2022-09-13T11:59:31.650Z,23.31
2022-09-13T12:02:06.435Z,23.10
2022-09-13T12:04:38.661Z,22.92
2022-09-13T12:07:13.414Z,22.87
2022-09-13T12:09:53.205Z,23.12
2022-09-13T12:12:21.695Z,22.92
2022-09-13T12:14:58.310Z,22.90
2022-09-13T12:17:33.059Z,22.93
2022-09-13T12:20:04.584Z,22.98
2022-09-13T12:22:36.755Z,22.93
2022-09-13T12:25:13.756Z,22.94
2022-09-13T12:27:46.670Z,22.87
2022-09-13T12:30:17.988Z,22.75
2022-09-13T12:32:49.083Z,22.79
2022-09-13T12:35:24.762Z,23.07
2022-09-13T12:38:14.361Z,23.09
2022-09-13T12:41:13.380Z,23.35
2022-09-13T12:44:02.672Z,23.37
2022-09-13T12:46:56.735Z,23.39
2022-09-13T12:49:55.109Z,23.17
2022-09-13T12:52:33.884Z,23.31
2022-09-13T12:55:46.773Z,23.69
2022-09-13T12:58:33.210Z,23.76
2022-09-13T13:01:09.808Z,23.70
2022-09-13T13:03:52.587Z,23.71
2022-09-13T13:06:29.228Z,23.42
2022-09-13T13:08:58.895Z,23.41
2022-09-13T13:11:29.334Z,23.46
2022-09-13T13:13:59.243Z,23.47
2022-09-13T13:16:30.717Z,24.04
2022-09-13T13:18:59.454Z,24.13
2022-09-13T13:21:35.193Z,24.05
2022-09-13T13:24:54.546Z,23.84
2022-09-13T13:27:38.894Z,23.71
2022-09-13T13:30:52.402Z,23.70
2022-09-13T13:33:23.114Z,23.99
2022-09-13T13:35:50.996Z,24.03
2022-09-13T13:38:39.941Z,24.04
2022-09-13T13:41:29.488Z,24.11
2022-09-13T13:43:57.333Z,24.04
2022-09-13T13:46:31.117Z,24.08
2022-09-13T13:49:40.287Z,24.20
2022-09-13T13:52:40.872Z,24.33
2022-09-13T13:55:33.648Z,24.36
2022-09-13T13:58:03.981Z,24.53
2022-09-13T14:00:34.328Z,24.89
2022-09-13T14:03:16.662Z,24.66
2022-09-13T14:05:52.451Z,24.87
2022-09-13T14:08:47.022Z,24.89
2022-09-13T14:11:25.173Z,25.10
2022-09-13T14:14:06.950Z,24.91
2022-09-13T14:16:50.097Z,24.86
2022-09-13T14:19:24.899Z,25.09
2022-09-13T14:22:14.672Z,24.99
2022-09-13T14:24:46.311Z,24.74
2022-09-13T14:27:21.265Z,24.50
2022-09-13T14:29:51.968Z,24.26
2022-09-13T14:32:22.742Z,24.26
2022-09-13T14:34:58.990Z,24.19
2022-09-13T14:37:31.017Z,24.11
2022-09-13T14:40:02.018Z,24.06
2022-09-13T14:42:40.513Z,23.96
2022-09-13T14:45:14.840Z,23.84
2022-09-13T14:47:49.567Z,23.77
2022-09-13T14:50:20.387Z,23.70
2022-09-13T14:52:52.473Z,23.73
2022-09-13T14:55:25.760Z,23.91
2022-09-13T14:57:58.344Z,24.19
2022-09-13T15:00:28.174Z,24.39
2022-09-13T15:02:59.887Z,24.42
2022-09-13T15:05:30.873Z,24.39
2022-09-13T15:07:59.188Z,24.35
2022-09-13T15:10:30.041Z,24.33
2022-09-13T15:13:09.479Z,24.28
2022-09-13T15:15:39.558Z,24.24
2022-09-13T15:18:24.873Z,24.14
2022-09-13T15:20:54.841Z,24.03
2022-09-13T15:23:25.828Z,23.93
2022-09-13T15:25:57.060Z,23.91
2022-09-13T15:28:28.441Z,23.89
2022-09-13T15:30:57.388Z,23.85
2022-09-13T15:33:27.577Z,23.83
2022-09-13T15:36:28.803Z,23.79
2022-09-13T15:39:02.052Z,23.79
2022-09-13T15:41:32.951Z,23.73
2022-09-13T15:44:01.722Z,23.68
2022-09-13T15:46:29.886Z,23.64
2022-09-13T15:48:59.628Z,23.82
2022-09-13T15:51:27.853Z,23.78
2022-09-13T15:53:55.755Z,23.72
2022-09-13T15:56:29.160Z,23.81
2022-09-13T15:58:58.116Z,23.71
2022-09-13T16:01:27.491Z,23.68
2022-09-13T16:03:55.328Z,23.82
2022-09-13T16:06:24.827Z,23.80
2022-09-13T16:08:52.527Z,23.68
2022-09-13T16:11:20.160Z,23.58
2022-09-13T16:13:47.774Z,23.50
2022-09-13T16:16:16.790Z,23.54
2022-09-13T16:18:44.442Z,23.62
2022-09-13T16:21:12.021Z,23.55
2022-09-13T16:23:39.598Z,23.54
2022-09-13T16:26:07.301Z,23.46
2022-09-13T16:28:34.897Z,23.39
2022-09-13T16:31:02.834Z,23.34
2022-09-13T16:33:32.289Z,23.37
2022-09-13T16:36:02.269Z,23.32
2022-09-13T16:38:30.124Z,23.26
2022-09-13T16:40:57.669Z,23.23
2022-09-13T16:43:25.264Z,23.21
2022-09-13T16:45:52.874Z,23.17
2022-09-13T16:48:20.430Z,23.13
2022-09-13T16:50:49.357Z,23.11
2022-09-13T16:53:17.334Z,23.11
2022-09-13T16:55:45.828Z,23.12
2022-09-13T16:58:13.464Z,23.13
2022-09-13T17:00:41.029Z,23.15
2022-09-13T17:03:10.960Z,23.09
2022-09-13T17:05:38.607Z,23.10
2022-09-13T17:08:07.875Z,23.13
2022-09-13T17:10:38.199Z,23.13
2022-09-13T17:13:06.231Z,23.09
2022-09-13T17:15:33.826Z,23.09
2022-09-13T17:18:01.486Z,23.06
2022-09-13T17:20:29.104Z,22.98
2022-09-13T17:22:56.706Z,22.94
2022-09-13T17:25:25.880Z,22.89
2022-09-13T17:27:53.517Z,22.86
2022-09-13T17:30:21.097Z,22.82
2022-09-13T17:32:48.630Z,22.82
2022-09-13T17:35:16.516Z,22.78
2022-09-13T17:37:44.107Z,22.76
2022-09-13T17:40:11.905Z,22.73
2022-09-13T17:42:40.921Z,22.72
2022-09-13T17:45:09.632Z,22.69
2022-09-13T17:47:37.215Z,22.67
2022-09-13T17:50:05.063Z,22.65
2022-09-13T17:52:34.911Z,22.64
2022-09-13T17:55:02.945Z,22.62
2022-09-13T17:57:30.486Z,22.66
2022-09-13T17:59:59.541Z,22.67
2022-09-13T18:02:27.964Z,22.73
2022-09-13T18:04:55.620Z,22.80
2022-09-13T18:07:23.238Z,22.79
2022-09-13T18:09:50.837Z,22.72
2022-09-13T18:12:18.428Z,22.65
2022-09-13T18:14:46.435Z,22.62
2022-09-13T18:17:15.452Z,22.57
2022-09-13T18:19:47.239Z,22.65
2022-09-13T18:22:15.217Z,22.62
2022-09-13T18:24:43.100Z,22.63
2022-09-13T18:27:10.726Z,22.55
2022-09-13T18:29:38.278Z,22.49
2022-09-13T18:32:06.121Z,22.48
2022-09-13T18:34:35.109Z,22.46
2022-09-13T18:37:02.664Z,22.63
2022-09-13T18:39:30.337Z,22.54
2022-09-13T18:41:57.894Z,22.50
2022-09-13T18:44:25.536Z,22.43
2022-09-13T18:46:54.150Z,22.39
2022-09-13T18:49:21.735Z,22.36
2022-09-13T18:51:50.927Z,22.33
2022-09-13T18:54:19.810Z,22.30
2022-09-13T18:56:48.640Z,22.26
2022-09-13T18:59:16.497Z,22.25
2022-09-13T19:01:45.375Z,22.23
2022-09-13T19:04:14.901Z,22.22
2022-09-13T19:06:44.359Z,22.25
2022-09-13T19:09:14.437Z,22.22
2022-09-13T19:11:47.813Z,22.19
2022-09-13T19:14:17.163Z,22.17
2022-09-13T19:16:45.117Z,22.17
2022-09-13T19:19:12.902Z,22.16
2022-09-13T19:21:40.588Z,22.29
2022-09-13T19:24:14.905Z,22.29
2022-09-13T19:26:45.943Z,22.35
2022-09-13T19:29:15.635Z,22.51
2022-09-13T19:31:44.990Z,22.53
2022-09-13T19:34:14.722Z,22.41
2022-09-13T19:36:44.215Z,22.49
2022-09-13T19:39:12.140Z,22.49
2022-09-13T19:41:41.074Z,22.65
2022-09-13T19:44:13.023Z,22.46
2022-09-13T19:46:41.886Z,22.43
2022-09-13T19:49:13.587Z,22.58
2022-09-13T19:51:42.468Z,22.68
2022-09-13T19:54:12.740Z,22.83
2022-09-13T19:56:43.754Z,22.85
2022-09-13T19:59:15.369Z,22.81
2022-09-13T20:01:45.490Z,22.73
2022-09-13T20:04:15.346Z,22.63
2022-09-13T20:06:45.151Z,22.76
2022-09-13T20:09:14.584Z,22.73
2022-09-13T20:11:45.355Z,22.79
2022-09-13T20:14:17.248Z,22.76
2022-09-13T20:16:45.051Z,22.72
2022-09-13T20:19:38.746Z,22.62
2022-09-13T20:22:03.140Z,22.52
2022-09-13T20:24:30.698Z,22.55
2022-09-13T20:26:58.297Z,22.39
2022-09-13T20:29:27.274Z,22.40
2022-09-13T20:31:55.579Z,22.36
2022-09-13T20:34:23.378Z,22.29
2022-09-13T20:36:51.021Z,22.22
2022-09-13T20:39:18.826Z,22.12
2022-09-13T20:41:49.203Z,21.99
2022-09-13T20:44:16.914Z,21.85
2022-09-13T20:46:45.867Z,21.77
2022-09-13T20:49:13.489Z,21.70
2022-09-13T20:51:41.078Z,21.66
2022-09-13T20:54:08.808Z,21.61
2022-09-13T20:56:36.779Z,21.58
2022-09-13T20:59:04.778Z,21.58
2022-09-13T21:01:33.412Z,21.55
2022-09-13T21:04:03.504Z,21.55
2022-09-13T21:06:33.451Z,21.51
2022-09-13T21:09:00.356Z,21.49
2022-09-13T21:11:30.361Z,21.48
2022-09-13T21:14:00.192Z,21.47
2022-09-13T21:16:30.386Z,21.46
2022-09-13T21:18:58.614Z,21.45
2022-09-13T21:21:29.750Z,21.45
2022-09-13T21:23:57.702Z,21.40
2022-09-13T21:26:28.137Z,21.38
2022-09-13T21:28:56.853Z,21.38
2022-09-13T21:31:26.729Z,21.41
2022-09-13T21:33:55.397Z,21.36
2022-09-13T21:36:23.660Z,21.34
2022-09-13T21:38:54.427Z,21.33
2022-09-13T21:41:22.935Z,21.31
2022-09-13T21:43:50.751Z,21.31
2022-09-13T21:46:20.206Z,21.28
2022-09-13T21:48:49.289Z,21.27
2022-09-13T21:51:18.853Z,21.25
2022-09-13T21:53:47.970Z,21.23
2022-09-13T21:56:19.134Z,21.22
2022-09-13T21:58:49.817Z,21.21
2022-09-13T22:01:19.319Z,21.21
2022-09-13T22:03:47.682Z,21.23
2022-09-13T22:06:16.674Z,21.28
2022-09-13T22:08:46.870Z,21.27
2022-09-13T22:11:17.910Z,21.25
2022-09-13T22:13:47.537Z,21.22
2022-09-13T22:16:19.441Z,21.20
2022-09-13T22:18:47.551Z,21.18
2022-09-13T22:21:17.427Z,21.17
2022-09-13T22:23:45.060Z,21.18
2022-09-13T22:26:14.998Z,21.17
2022-09-13T22:28:44.522Z,21.16
2022-09-13T22:31:15.116Z,21.15
2022-09-13T22:33:43.906Z,21.15
2022-09-13T22:36:13.889Z,21.15
2022-09-13T22:38:44.717Z,21.18
2022-09-13T22:41:14.243Z,21.17
2022-09-13T22:43:42.823Z,21.23
2022-09-13T22:46:13.334Z,21.17
2022-09-13T22:48:41.488Z,21.13
2022-09-13T22:51:10.686Z,21.12
2022-09-13T22:53:39.981Z,21.06
2022-09-13T22:56:11.066Z,21.02
2022-09-13T22:58:38.938Z,20.99
2022-09-13T23:01:09.419Z,21.02
2022-09-13T23:03:40.551Z,20.99
2022-09-13T23:06:09.701Z,20.99
2022-09-13T23:08:38.385Z,21.01
2022-09-13T23:11:10.442Z,21.03
2022-09-13T23:13:38.595Z,21.00
2022-09-13T23:16:07.811Z,20.96
2022-09-13T23:18:36.170Z,20.94
2022-09-13T23:21:06.789Z,20.91
2022-09-13T23:23:34.382Z,20.89
2022-09-13T23:26:06.589Z,20.87
2022-09-13T23:28:34.656Z,20.85
2022-09-13T23:31:13.346Z,20.98
2022-09-13T23:33:41.821Z,20.90
2022-09-13T23:36:12.320Z,20.87
2022-09-13T23:38:40.371Z,20.85
2022-09-13T23:41:10.014Z,21.08
2022-09-13T23:43:37.647Z,21.04
2022-09-13T23:46:10.137Z,21.06
2022-09-13T23:48:38.344Z,21.02
2022-09-13T23:51:08.330Z,21.02
2022-09-13T23:53:38.196Z,21.08
2022-09-13T23:56:08.020Z,21.34
2022-09-13T23:58:36.095Z,21.68
